createdAt,value
2018-02-06T00:01:56.894Z,14.40
2018-02-06T00:04:24.401Z,14.40
2018-02-06T00:06:51.946Z,15.30
2018-02-06T00:09:19.453Z,16.12
2018-02-06T00:11:46.992Z,15.02
2018-02-06T00:14:14.495Z,15.63
2018-02-06T00:16:42.045Z,17.17
2018-02-06T00:19:09.582Z,14.98
2018-02-06T00:21:37.866Z,15.20
2018-02-06T00:24:06.133Z,16.77
2018-02-06T00:26:34.419Z,16.37
2018-02-06T00:29:02.690Z,16.85
2018-02-06T00:31:30.977Z,16.10
2018-02-06T00:33:59.245Z,15.35
2018-02-06T00:36:27.557Z,16.05
2018-02-06T00:38:55.064Z,15.55
2018-02-06T00:41:22.611Z,17.33
2018-02-06T00:43:50.129Z,16.45
2018-02-06T00:46:17.630Z,15.68
2018-02-06T00:48:45.159Z,16.58
2018-02-06T00:51:12.670Z,16.15
2018-02-06T00:53:40.958Z,17.20
2018-02-06T00:56:09.230Z,16.10
2018-02-06T00:58:37.527Z,16.23
2018-02-06T01:01:05.046Z,15.60
2018-02-06T01:03:32.569Z,17.20
2018-02-06T01:06:00.070Z,15.73
2018-02-06T01:08:27.594Z,16.30
2018-02-06T01:10:55.093Z,17.05
2018-02-06T01:13:23.377Z,16.60
2018-02-06T01:15:51.674Z,16.12
2018-02-06T01:18:19.193Z,17.15
2018-02-06T01:20:46.694Z,15.18
2018-02-06T01:23:14.221Z,17.75
2018-02-06T01:25:41.721Z,16.73
2018-02-06T01:28:10.184Z,17.73
2018-02-06T01:30:37.709Z,17.15
2018-02-06T01:33:05.252Z,16.67
2018-02-06T01:35:32.761Z,16.02
2018-02-06T01:38:01.046Z,18.00
2018-02-06T01:40:28.573Z,17.42
2018-02-06T01:42:56.078Z,16.40
2018-02-06T01:45:23.618Z,16.50
2018-02-06T01:47:51.129Z,15.95
2018-02-06T01:50:18.650Z,15.85
2018-02-06T01:52:46.153Z,17.08
2018-02-06T01:55:13.673Z,17.67
2018-02-06T01:57:41.183Z,16.92
2018-02-06T02:00:08.709Z,17.62
2018-02-06T02:02:36.225Z,16.85
2018-02-06T02:05:03.757Z,17.02
2018-02-06T02:07:31.258Z,16.98
2018-02-06T02:09:58.783Z,17.90
2018-02-06T02:12:26.296Z,16.67
2018-02-06T02:14:53.813Z,18.12
2018-02-06T02:17:22.089Z,17.40
2018-02-06T02:19:50.393Z,17.52
2018-02-06T02:22:17.906Z,18.00
2018-02-06T02:24:45.440Z,16.10
2018-02-06T02:27:12.949Z,16.87
2018-02-06T02:29:41.233Z,17.48
2018-02-06T02:32:09.512Z,17.65
2018-02-06T02:34:37.072Z,18.15
2018-02-06T02:37:05.322Z,18.20
2018-02-06T02:39:32.859Z,16.55
2018-02-06T04:40:08.670Z,18.58
2018-02-06T04:42:36.958Z,18.55
2018-02-06T04:45:04.471Z,19.77
2018-02-06T04:47:32.030Z,17.48
2018-02-06T04:49:59.532Z,19.70
2018-02-06T04:52:27.070Z,19.42
2018-02-06T04:54:54.582Z,18.62
2018-02-06T04:57:22.894Z,18.75
2018-02-06T04:59:50.403Z,18.60
2018-02-06T05:02:18.698Z,18.87
2018-02-06T05:04:46.198Z,17.77
2018-02-06T05:07:13.722Z,20.65
2018-02-06T05:09:41.262Z,20.25
2018-02-06T05:12:08.783Z,20.92
2018-02-06T05:14:37.073Z,18.95
2018-02-06T05:17:07.297Z,18.73
2018-02-06T05:19:35.600Z,19.10
2018-02-06T05:22:03.108Z,19.95
2018-02-06T05:24:30.634Z,19.75
2018-02-06T05:26:58.133Z,19.48
2018-02-06T05:29:26.446Z,18.80
2018-02-06T05:31:53.950Z,21.67
2018-02-06T05:34:21.477Z,21.17
2018-02-06T05:36:48.993Z,19.67
2018-02-06T05:39:17.298Z,20.45
2018-02-06T05:41:44.819Z,18.90
2018-02-06T05:44:12.350Z,21.75
2018-02-06T05:46:39.865Z,20.12
2018-02-06T05:49:08.152Z,20.52
2018-02-06T05:51:35.669Z,21.10
2018-02-06T05:54:03.224Z,20.58
2018-02-06T05:56:30.730Z,21.02
2018-02-06T05:58:58.267Z,21.85
2018-02-06T06:01:26.549Z,20.75
2018-02-06T06:03:54.874Z,20.15
2018-02-06T06:06:22.398Z,19.58
2018-02-06T06:08:50.680Z,20.95
2018-02-06T06:11:18.184Z,19.50
2018-02-06T06:13:45.753Z,20.40
2018-02-06T06:16:13.270Z,22.52
2018-02-06T06:18:40.781Z,20.90
2018-02-06T06:21:08.306Z,21.60
2018-02-06T06:23:35.850Z,20.23
2018-02-06T06:26:03.369Z,20.35
2018-02-06T06:28:31.657Z,21.92
2018-02-06T06:30:59.974Z,20.62
2018-02-06T06:33:27.488Z,22.08
2018-02-06T06:35:55.053Z,22.42
2018-02-06T06:38:23.322Z,22.02
2018-02-06T06:40:51.623Z,23.20
2018-02-06T06:43:19.141Z,22.10
2018-02-06T06:45:46.674Z,22.90
2018-02-06T06:48:14.185Z,22.62
2018-02-06T06:50:42.486Z,22.85
2018-02-06T06:53:09.993Z,23.20
2018-02-06T06:55:37.521Z,22.50
2018-02-06T06:58:05.792Z,22.52
2018-02-06T07:00:33.332Z,22.60
2018-02-06T07:03:00.841Z,23.67
2018-02-06T07:05:28.348Z,22.52
2018-02-06T07:07:55.877Z,23.85
2018-02-06T07:10:23.433Z,22.25
2018-02-06T07:12:50.960Z,21.58
2018-02-06T07:15:18.507Z,23.12
2018-02-06T07:17:46.029Z,21.45
2018-02-06T07:20:14.302Z,22.70
2018-02-06T07:22:42.593Z,24.10
2018-02-06T07:25:10.857Z,21.90
2018-02-06T07:27:39.181Z,22.50
2018-02-06T07:30:06.698Z,24.25
2018-02-06T07:32:34.995Z,24.15
2018-02-06T07:35:02.494Z,22.48
2018-02-06T07:37:30.113Z,24.27
2018-02-06T07:39:57.617Z,22.35
2018-02-06T07:42:25.145Z,23.12
2018-02-06T07:44:52.687Z,22.55
2018-02-06T07:47:20.221Z,22.15
2018-02-06T07:49:48.497Z,21.58
2018-02-06T07:52:16.797Z,22.20
2018-02-06T07:54:44.331Z,22.65
2018-02-06T07:57:11.842Z,23.20
2018-02-06T07:59:39.371Z,24.60
2018-02-06T08:02:06.882Z,22.95
2018-02-06T08:04:34.413Z,23.20
2018-02-06T08:07:02.105Z,23.17
2018-02-06T08:09:29.641Z,22.60
2018-02-06T08:11:57.199Z,22.15
2018-02-06T08:14:24.758Z,23.95
2018-02-06T08:16:52.272Z,24.10
2018-02-06T08:19:20.602Z,21.77
2018-02-06T08:21:48.129Z,24.50
2018-02-06T08:24:16.421Z,23.05
2018-02-06T08:26:43.946Z,21.15
2018-02-06T08:29:11.469Z,23.25
2018-02-06T08:31:38.973Z,22.85
2018-02-06T08:34:07.264Z,23.33
2018-02-06T08:36:34.769Z,23.08
2018-02-06T08:39:02.322Z,24.30
2018-02-06T08:41:29.829Z,24.70
2018-02-06T08:43:58.098Z,24.17
2018-02-06T08:46:26.406Z,23.42
2018-02-06T08:48:53.924Z,23.67
2018-02-06T08:51:21.461Z,24.23
2018-02-06T08:53:48.963Z,23.08
2018-02-06T08:56:17.258Z,22.80
2018-02-06T08:58:45.533Z,22.08
2018-02-06T09:01:13.057Z,24.42
2018-02-06T09:03:40.563Z,22.58
2018-02-06T09:06:08.158Z,24.23
2018-02-06T09:08:35.686Z,22.30
2018-02-06T09:11:03.210Z,23.27
2018-02-06T09:13:31.478Z,24.70
2018-02-06T09:15:59.001Z,23.38
2018-02-06T09:18:26.515Z,21.48
2018-02-06T09:20:54.802Z,22.75
2018-02-06T09:23:22.330Z,22.65
2018-02-06T09:25:50.670Z,22.90
2018-02-06T09:28:18.216Z,21.55
2018-02-06T09:30:45.757Z,23.17
2018-02-06T09:33:13.278Z,22.65
2018-02-06T09:35:40.838Z,24.00
2018-02-06T09:38:08.364Z,22.90
2018-02-06T09:40:35.871Z,22.87
2018-02-06T09:43:03.394Z,22.35
2018-02-06T09:45:30.952Z,21.37
2018-02-06T09:47:58.525Z,21.65
2018-02-06T09:50:26.038Z,22.87
2018-02-06T09:52:53.562Z,22.80
2018-02-06T09:55:21.082Z,23.55
2018-02-06T09:57:48.630Z,23.87
2018-02-06T10:00:16.126Z,24.23
2018-02-06T10:02:43.656Z,25.62
2018-02-06T10:05:11.161Z,21.73
2018-02-06T10:07:38.724Z,21.98
2018-02-06T10:10:07.012Z,23.75
2018-02-06T10:12:34.534Z,22.70
2018-02-06T10:15:02.068Z,22.17
2018-02-06T10:17:29.575Z,23.42
2018-02-06T10:19:57.090Z,21.65
2018-02-06T10:22:24.590Z,22.67
2018-02-06T10:24:52.159Z,21.83
2018-02-06T10:27:19.658Z,21.20
2018-02-06T10:29:47.181Z,21.73
2018-02-06T10:32:15.461Z,20.92
2018-02-06T10:34:43.749Z,22.65
2018-02-06T10:37:11.254Z,21.62
2018-02-06T10:39:38.781Z,23.48
2018-02-06T10:42:06.285Z,23.70
2018-02-06T10:44:33.822Z,22.00
2018-02-06T10:47:01.337Z,22.02
2018-02-06T10:49:29.624Z,23.62
2018-02-06T10:51:57.138Z,21.75
2018-02-06T10:54:24.659Z,22.52
2018-02-06T10:56:52.162Z,21.67
2018-02-06T10:59:20.453Z,23.95
2018-02-06T11:01:47.985Z,22.17
2018-02-06T11:04:15.515Z,21.62
2018-02-06T11:06:43.046Z,20.88
2018-02-06T11:09:11.320Z,21.92
2018-02-06T11:11:39.613Z,23.33
2018-02-06T11:14:07.113Z,21.00
2018-02-06T11:16:34.635Z,22.62
2018-02-06T11:19:02.134Z,22.20
2018-02-06T11:21:29.653Z,21.37
2018-02-06T11:23:57.158Z,20.55
2018-02-06T11:26:24.678Z,22.20
2018-02-06T11:28:52.179Z,21.95
2018-02-06T11:31:19.718Z,20.05
2018-02-06T11:33:47.222Z,22.45
2018-02-06T11:36:15.513Z,22.40
2018-02-06T11:38:43.781Z,21.15
2018-02-06T11:41:12.074Z,21.23
2018-02-06T11:43:39.572Z,20.50
2018-02-06T11:46:07.077Z,21.08
2018-02-06T11:48:35.370Z,20.90
2018-02-06T11:51:02.971Z,21.70
2018-02-06T11:53:30.566Z,20.60
2018-02-06T11:55:58.146Z,21.08
2018-02-06T11:58:26.434Z,19.98
2018-02-06T12:00:53.946Z,20.35
2018-02-06T12:03:21.474Z,20.95
2018-02-06T12:05:48.977Z,18.75
2018-02-06T12:08:16.584Z,19.70
2018-02-06T12:10:44.087Z,19.00
2018-02-06T12:13:11.615Z,17.87
2018-02-06T12:15:39.117Z,17.23
2018-02-06T12:18:07.449Z,18.00
2018-02-06T12:20:34.962Z,18.30
2018-02-06T12:23:03.232Z,18.05
2018-02-06T12:25:30.754Z,17.80
2018-02-06T12:27:58.336Z,18.33
2018-02-06T12:30:25.861Z,17.52
2018-02-06T12:32:53.362Z,15.88
2018-02-06T12:35:20.898Z,17.92
2018-02-06T12:37:48.434Z,16.98
2018-02-06T12:40:15.962Z,18.15
2018-02-06T12:42:44.237Z,17.62
2018-02-06T12:45:12.538Z,16.90
2018-02-06T12:47:40.042Z,17.87
2018-02-06T12:50:07.575Z,17.33
2018-02-06T12:52:35.090Z,16.30
2018-02-06T12:55:03.405Z,17.62
2018-02-06T12:57:30.967Z,18.02
2018-02-06T12:59:58.501Z,18.52
2018-02-06T13:02:26.015Z,16.50
2018-02-06T13:04:55.122Z,17.23
2018-02-06T13:07:22.646Z,17.05
2018-02-06T13:09:50.148Z,16.73
2018-02-06T13:12:17.687Z,17.15
2018-02-06T13:14:45.189Z,16.05
2018-02-06T13:17:12.713Z,17.40
2018-02-06T13:19:40.233Z,18.75
2018-02-06T13:22:07.769Z,18.73
2018-02-06T13:24:36.042Z,18.30
2018-02-06T13:27:04.392Z,19.33
2018-02-06T13:29:31.881Z,18.60
2018-02-06T13:31:59.408Z,18.35
2018-02-06T13:34:26.921Z,16.83
2018-02-06T13:36:54.457Z,18.00
2018-02-06T13:39:21.970Z,19.27
2018-02-06T13:41:49.498Z,19.55
2018-02-06T13:44:17.002Z,19.90
2018-02-06T13:46:44.546Z,18.55
2018-02-06T13:49:12.077Z,18.00
2018-02-06T13:51:39.587Z,18.87
2018-02-06T13:54:07.113Z,17.85
2018-02-06T13:56:34.621Z,18.58
2018-02-06T13:59:02.932Z,18.92
2018-02-06T14:01:30.467Z,19.10
2018-02-06T14:03:58.785Z,19.05
2018-02-06T14:06:26.302Z,19.23
2018-02-06T14:08:54.610Z,18.87
2018-02-06T14:11:22.129Z,18.98
2018-02-06T14:13:50.434Z,19.23
2018-02-06T14:16:17.950Z,18.08
2018-02-06T14:18:45.475Z,20.27
2018-02-06T14:21:12.991Z,19.08
2018-02-06T14:23:41.363Z,20.95
2018-02-06T14:26:09.642Z,18.12
2018-02-06T14:28:37.923Z,18.35
2018-02-06T14:31:06.198Z,19.37
2018-02-06T14:33:38.907Z,18.83
2018-02-06T14:36:06.433Z,18.10
2018-02-06T14:38:34.713Z,18.15
2018-02-06T14:41:03.010Z,19.10
2018-02-06T14:43:30.550Z,18.83
2018-02-06T14:45:58.844Z,19.20
2018-02-06T14:48:26.350Z,18.52
2018-02-06T14:50:53.882Z,18.25
2018-02-06T14:53:22.162Z,18.85
2018-02-06T14:55:49.697Z,18.08
2018-02-06T14:58:17.201Z,17.98
2018-02-06T15:00:44.725Z,17.65
2018-02-06T15:03:12.237Z,18.48
2018-02-06T15:05:39.768Z,18.02
2018-02-06T15:08:07.269Z,17.10
2018-02-06T15:10:34.798Z,16.40
2018-02-06T15:13:02.323Z,18.67
2018-02-06T15:15:29.869Z,16.75
2018-02-06T15:17:57.397Z,18.12
2018-02-06T15:20:24.934Z,16.30
2018-02-06T15:22:52.461Z,16.15
2018-02-06T15:25:19.997Z,16.98
2018-02-06T15:27:49.036Z,17.33
2018-02-06T15:30:16.658Z,15.40
2018-02-06T15:32:47.490Z,16.25
2018-02-06T15:35:15.069Z,16.65
2018-02-06T15:37:42.625Z,17.00
2018-02-06T15:40:10.130Z,15.57
2018-02-06T15:42:37.678Z,16.75
2018-02-06T15:45:05.734Z,16.35
2018-02-06T15:47:34.300Z,16.05
2018-02-06T15:50:01.802Z,16.90
2018-02-06T15:52:29.322Z,15.55
2018-02-06T15:54:56.849Z,15.95
2018-02-06T15:57:24.383Z,16.37
2018-02-06T15:59:51.895Z,16.60
2018-02-06T16:02:19.422Z,15.25
2018-02-06T16:04:46.936Z,16.05
2018-02-06T16:07:14.470Z,16.05
2018-02-06T16:09:42.746Z,15.95
2018-02-06T16:12:11.045Z,16.20
2018-02-06T16:14:38.656Z,15.68
2018-02-06T16:17:06.185Z,13.57
2018-02-06T16:19:33.717Z,14.20
2018-02-06T16:22:01.234Z,14.87
2018-02-06T16:24:28.735Z,14.35
2018-02-06T16:26:56.264Z,14.45
2018-02-06T16:29:24.551Z,14.20
2018-02-06T16:31:52.830Z,15.35
2018-02-06T16:34:21.186Z,16.08
2018-02-06T16:36:48.704Z,16.62
2018-02-06T16:39:16.238Z,16.60
2018-02-06T16:41:43.737Z,15.52
2018-02-06T16:44:11.270Z,15.60
2018-02-06T16:46:38.775Z,16.15
2018-02-06T16:49:06.339Z,15.90
2018-02-06T16:51:33.972Z,16.27
2018-02-06T16:54:01.521Z,16.12
2018-02-06T16:56:29.057Z,16.75
2018-02-06T16:58:56.646Z,15.80
2018-02-06T17:01:24.159Z,15.43
2018-02-06T17:03:52.441Z,14.87
2018-02-06T17:06:20.709Z,15.35
2018-02-06T17:08:49.019Z,15.45
2018-02-06T17:11:16.508Z,14.63
2018-02-06T17:13:44.038Z,15.15
2018-02-06T17:16:11.561Z,16.52
2018-02-06T17:18:39.893Z,15.80
2018-02-06T17:21:07.398Z,17.15
2018-02-06T17:23:35.672Z,16.85
2018-02-06T17:26:03.199Z,17.35
2018-02-06T17:28:30.706Z,17.02
2018-02-06T17:30:58.991Z,15.70
2018-02-06T17:33:26.501Z,17.02
2018-02-06T17:35:54.034Z,17.60
2018-02-06T17:38:21.538Z,19.85
2018-02-06T17:40:49.073Z,17.45
2018-02-06T17:43:16.582Z,18.67
2018-02-06T17:45:44.862Z,16.80
2018-02-06T17:48:13.131Z,18.20
2018-02-06T17:50:41.426Z,18.40
2018-02-06T17:53:08.926Z,19.05
2018-02-06T17:55:36.438Z,17.70
2018-02-06T17:58:03.944Z,18.35
2018-02-06T18:00:31.458Z,20.20
2018-02-06T18:02:58.976Z,16.75
2018-02-06T18:05:26.590Z,19.70
2018-02-06T18:07:54.094Z,23.77
2018-02-06T18:10:21.632Z,21.20
2018-02-06T18:12:49.157Z,20.17
2018-02-06T18:15:16.832Z,21.08
2018-02-06T18:17:44.318Z,19.35
2018-02-06T18:20:11.840Z,20.80
2018-02-06T18:22:39.357Z,21.45
2018-02-06T18:25:06.869Z,23.55
2018-02-06T18:27:35.171Z,21.67
2018-02-06T18:30:02.678Z,21.33
2018-02-06T18:32:30.963Z,22.77
2018-02-06T18:34:58.495Z,19.92
2018-02-06T18:37:26.031Z,20.27
2018-02-06T18:39:53.546Z,18.92
2018-02-06T18:42:21.069Z,19.73
2018-02-06T18:44:48.570Z,20.08
2018-02-06T18:47:16.147Z,19.90
2018-02-06T18:49:43.657Z,18.35
2018-02-06T18:52:11.210Z,19.55
2018-02-06T18:54:38.710Z,19.92
2018-02-06T18:57:06.326Z,19.80
2018-02-06T18:59:33.825Z,19.40
2018-02-06T19:02:01.338Z,19.62
2018-02-06T19:04:31.044Z,19.30
2018-02-06T19:06:58.549Z,20.50
2018-02-06T19:09:26.834Z,20.50
2018-02-06T19:11:54.410Z,19.70
2018-02-06T19:14:21.954Z,19.33
2018-02-06T19:16:49.530Z,19.35
2018-02-06T19:19:17.071Z,20.55
2018-02-06T19:21:44.581Z,19.25
2018-02-06T19:24:12.098Z,19.80
2018-02-06T19:26:39.606Z,20.92
2018-02-06T19:29:07.130Z,20.12
2018-02-06T19:31:34.686Z,19.75
2018-02-06T19:34:03.087Z,19.33
2018-02-06T19:36:30.586Z,20.42
2018-02-06T19:38:58.970Z,20.83
2018-02-06T19:41:27.293Z,19.83
2018-02-06T19:43:54.874Z,21.95
2018-02-06T19:46:23.222Z,20.85
2018-02-06T19:48:50.790Z,20.85
2018-02-06T19:51:18.292Z,22.90
2018-02-06T19:53:46.636Z,25.92
2018-02-06T19:56:14.211Z,24.63
2018-02-06T19:58:41.848Z,22.35
2018-02-06T20:01:09.362Z,24.35
2018-02-06T20:03:37.637Z,26.45
2018-02-06T20:06:05.982Z,25.08
2018-02-06T20:08:33.485Z,25.00
2018-02-06T20:11:01.012Z,25.02
2018-02-06T20:13:28.521Z,24.83
2018-02-06T20:15:56.105Z,24.20
2018-02-06T20:18:23.646Z,25.77
2018-02-06T20:20:51.227Z,26.25
2018-02-06T20:23:18.741Z,25.67
2018-02-06T20:25:46.293Z,24.45
2018-02-06T20:28:13.822Z,25.85
2018-02-06T20:30:41.350Z,23.60
2018-02-06T20:33:08.913Z,21.62
2018-02-06T20:35:37.202Z,22.50
2018-02-06T20:38:04.727Z,20.20
2018-02-06T20:40:32.309Z,22.10
2018-02-06T20:43:00.602Z,21.33
2018-02-06T20:45:28.939Z,20.75
2018-02-06T20:47:56.465Z,21.62
2018-02-06T20:50:24.015Z,22.17
2018-02-06T20:52:51.592Z,20.60
2018-02-06T20:55:19.164Z,20.23
2018-02-06T20:57:46.834Z,19.40
2018-02-06T21:00:14.378Z,21.00
2018-02-06T21:02:41.897Z,20.12
2018-02-06T21:05:10.224Z,22.45
2018-02-06T21:07:37.738Z,19.25
2018-02-06T21:10:06.051Z,20.42
2018-02-06T21:12:33.947Z,19.70
2018-02-06T21:15:01.536Z,20.30
2018-02-06T21:17:29.842Z,21.30
2018-02-06T21:19:57.354Z,19.60
2018-02-06T21:22:24.973Z,20.17
2018-02-06T21:24:52.486Z,20.10
2018-02-06T21:27:20.828Z,20.12
2018-02-06T21:29:48.337Z,19.67
2018-02-06T21:32:15.881Z,20.90
2018-02-06T21:34:44.231Z,20.62
2018-02-06T21:37:11.737Z,20.60
2018-02-06T21:39:40.030Z,19.60
2018-02-06T21:42:07.586Z,19.52
2018-02-06T21:44:35.160Z,19.50
2018-02-06T21:47:02.723Z,18.45
2018-02-06T21:49:30.254Z,20.92
2018-02-06T21:51:58.580Z,18.92
2018-02-06T21:54:26.110Z,18.60
2018-02-06T21:56:53.663Z,17.37
2018-02-06T21:59:21.187Z,20.12
2018-02-06T22:01:48.709Z,19.77
2018-02-06T22:04:16.234Z,20.05
2018-02-06T22:06:44.557Z,19.25
2018-02-06T22:09:12.085Z,19.27
2018-02-06T22:11:39.595Z,20.02
2018-02-06T22:14:07.112Z,19.20
2018-02-06T22:16:34.629Z,19.33
2018-02-06T22:19:02.984Z,19.52
2018-02-06T22:21:30.505Z,19.85
2018-02-06T22:23:58.014Z,19.87
2018-02-06T22:26:25.540Z,20.77
2018-02-06T22:28:53.816Z,20.20
2018-02-06T22:31:21.340Z,20.90
2018-02-06T22:33:49.604Z,20.55
2018-02-06T22:36:17.988Z,19.65
2018-02-06T22:38:46.266Z,18.95
2018-02-06T22:41:14.574Z,20.02
2018-02-06T22:43:42.069Z,20.98
2018-02-06T22:46:09.588Z,18.98
2018-02-06T22:48:37.099Z,20.65
2018-02-06T22:51:05.410Z,22.30
2018-02-06T22:53:32.913Z,21.33
2018-02-06T22:56:00.439Z,21.75
2018-02-06T22:58:27.943Z,19.95
2018-02-06T23:00:55.465Z,20.37
2018-02-06T23:03:22.969Z,21.60
2018-02-06T23:05:50.555Z,22.80
2018-02-06T23:08:18.036Z,21.30
2018-02-06T23:10:45.610Z,21.48
2018-02-06T23:13:13.121Z,21.60
2018-02-06T23:15:41.397Z,23.02
2018-02-06T23:18:09.705Z,22.80
2018-02-06T23:20:37.211Z,20.45
2018-02-06T23:23:05.723Z,21.62
2018-02-06T23:25:34.020Z,21.08
2018-02-06T23:28:01.593Z,21.20
2018-02-06T23:30:29.097Z,21.40
2018-02-06T23:32:56.633Z,20.65
2018-02-06T23:35:24.142Z,20.65
2018-02-06T23:37:52.438Z,22.33
2018-02-06T23:40:19.953Z,20.35
2018-02-06T23:42:47.570Z,20.98
2018-02-06T23:45:15.066Z,23.23
2018-02-06T23:47:42.588Z,20.75
2018-02-06T23:50:10.148Z,21.83
2018-02-06T23:52:37.665Z,21.10
2018-02-06T23:55:05.194Z,22.40
2018-02-06T23:57:32.777Z,22.70
